createdAt,value
2022-09-05T00:00:05.887Z,1.00
2022-09-05T00:02:39.316Z,1.50
2022-09-05T00:05:29.245Z,1.37
2022-09-05T00:08:23.922Z,1.07
2022-09-05T00:11:43.043Z,1.07
2022-09-05T00:15:15.157Z,1.40
2022-09-05T00:20:34.840Z,1.10
2022-09-05T00:24:30.499Z,1.67
2022-09-05T00:24:36.644Z,1.57
2022-09-05T00:27:00.534Z,1.57
2022-09-05T00:31:05.771Z,1.50
2022-09-05T00:33:23.295Z,1.53
2022-09-05T00:36:17.741Z,1.27
2022-09-05T00:38:58.281Z,1.67
2022-09-05T00:41:27.175Z,1.53
2022-09-05T00:43:57.287Z,1.37
2022-09-05T00:46:32.659Z,1.30
2022-09-05T00:49:29.157Z,1.43
2022-09-05T00:51:56.334Z,1.60
2022-09-05T00:54:48.145Z,1.67
2022-09-05T00:57:52.639Z,1.20
2022-09-05T01:00:22.958Z,0.87
2022-09-05T01:03:10.117Z,1.80
2022-09-05T01:05:40.453Z,1.20
2022-09-05T01:08:23.338Z,1.10
2022-09-05T01:11:28.338Z,0.80
2022-09-05T01:14:32.418Z,1.10
2022-09-05T01:16:59.445Z,1.27
2022-09-05T01:20:19.732Z,1.23
2022-09-05T01:23:08.602Z,1.03
2022-09-05T01:25:52.536Z,1.07
2022-09-05T01:29:16.939Z,1.50
2022-09-05T01:31:42.809Z,0.90
2022-09-05T01:34:41.741Z,1.53
2022-09-05T01:37:54.229Z,1.33
2022-09-05T01:40:39.627Z,1.27
2022-09-05T01:43:19.977Z,1.23
2022-09-05T01:46:21.061Z,1.40
2022-09-05T01:48:58.364Z,0.90
2022-09-05T01:52:06.723Z,1.30
2022-09-05T01:54:58.557Z,1.10
2022-09-05T01:57:34.927Z,1.07
2022-09-05T02:00:17.214Z,1.10
2022-09-05T02:02:55.950Z,1.07
2022-09-05T02:05:47.610Z,1.07
2022-09-05T02:08:15.850Z,1.07
2022-09-05T02:10:43.004Z,1.00
2022-09-05T02:13:34.002Z,1.20
2022-09-05T02:16:19.365Z,1.00
2022-09-05T02:19:10.792Z,1.10
2022-09-05T02:21:57.567Z,1.50
2022-09-05T02:24:33.409Z,1.30
2022-09-05T02:27:53.577Z,1.00
2022-09-05T02:29:58.359Z,1.10
2022-09-05T02:32:39.261Z,1.40
2022-09-05T02:35:10.284Z,1.20
2022-09-05T02:40:45.985Z,1.20
2022-09-05T02:45:03.628Z,1.50
2022-09-05T02:45:17.650Z,0.90
2022-09-05T02:46:20.738Z,1.07
2022-09-05T02:49:43.156Z,1.30
2022-09-05T02:57:28.671Z,1.27
2022-09-05T02:57:39.662Z,1.53
2022-09-05T02:58:11.896Z,1.23
2022-09-05T03:00:47.981Z,1.57
2022-09-05T03:03:18.160Z,0.80
2022-09-05T03:05:59.729Z,1.10
2022-09-05T03:08:42.160Z,1.30
2022-09-05T03:11:15.386Z,1.30
2022-09-05T03:14:07.533Z,1.10
2022-09-05T03:17:02.527Z,1.50
2022-09-05T03:19:54.627Z,0.90
2022-09-05T03:22:37.344Z,1.03
2022-09-05T03:25:28.822Z,1.63
2022-09-05T03:28:26.616Z,1.00
2022-09-05T03:31:31.594Z,1.07
2022-09-05T03:34:37.914Z,0.80
2022-09-05T03:37:26.946Z,1.50
2022-09-05T03:40:36.661Z,1.03
2022-09-05T03:43:22.035Z,1.10
2022-09-05T03:45:58.340Z,2.17
2022-09-05T03:48:28.334Z,1.20
2022-09-05T03:57:11.556Z,1.00
2022-09-05T03:57:26.847Z,0.97
2022-09-05T03:57:41.912Z,1.07
2022-09-05T04:00:16.132Z,1.20
2022-09-05T04:08:03.335Z,1.10
2022-09-05T04:08:29.664Z,1.27
2022-09-05T04:09:02.205Z,1.20
2022-09-05T04:11:41.670Z,1.40
2022-09-05T04:14:43.198Z,1.33
2022-09-05T04:17:37.044Z,1.20
2022-09-05T04:20:40.562Z,1.87
2022-09-05T04:23:25.665Z,1.70
2022-09-05T04:26:11.006Z,1.30
2022-09-05T04:28:54.079Z,1.37
2022-09-05T04:32:18.180Z,1.30
2022-09-05T04:35:07.461Z,1.53
2022-09-05T04:37:48.879Z,1.80
2022-09-05T04:40:37.368Z,1.73
2022-09-05T04:43:13.861Z,1.93
2022-09-05T04:45:48.614Z,1.80
2022-09-05T04:48:23.260Z,1.77
2022-09-05T04:51:22.836Z,1.87
2022-09-05T04:54:18.987Z,1.53
2022-09-05T04:56:51.116Z,1.93
2022-09-05T05:03:16.303Z,1.60
2022-09-05T05:06:01.639Z,2.30
2022-09-05T05:06:16.464Z,2.10
2022-09-05T05:08:17.374Z,2.40
2022-09-05T05:17:57.331Z,2.37
2022-09-05T05:18:09.264Z,1.77
2022-09-05T05:18:15.466Z,2.70
2022-09-05T05:20:39.854Z,1.90
2022-09-05T05:23:17.097Z,2.57
2022-09-05T05:25:54.421Z,2.23
2022-09-05T05:28:46.288Z,2.10
2022-09-05T05:31:30.969Z,2.33
2022-09-05T05:34:09.759Z,1.97
2022-09-05T05:37:03.014Z,2.17
2022-09-05T05:39:33.256Z,2.10
2022-09-05T05:42:20.183Z,1.80
2022-09-05T05:44:54.714Z,1.83
2022-09-05T05:47:31.415Z,2.67
2022-09-05T05:50:02.875Z,1.70
2022-09-05T05:53:00.992Z,2.10
2022-09-05T05:55:52.977Z,1.93
2022-09-05T05:58:46.325Z,2.33
2022-09-05T06:01:36.946Z,2.27
2022-09-05T06:04:35.368Z,2.40
2022-09-05T06:07:23.669Z,2.67
2022-09-05T06:14:56.377Z,2.00
2022-09-05T06:14:57.750Z,2.53
2022-09-05T06:16:16.790Z,2.53
2022-09-05T06:19:05.663Z,2.67
2022-09-05T06:22:31.305Z,2.80
2022-09-05T06:25:22.792Z,2.37
2022-09-05T06:28:19.309Z,3.00
2022-09-05T06:31:33.694Z,3.00
2022-09-05T06:34:30.855Z,2.67
2022-09-05T06:37:25.486Z,2.70
2022-09-05T06:40:12.240Z,2.97
2022-09-05T06:43:15.309Z,2.93
2022-09-05T06:46:51.432Z,3.67
2022-09-05T06:49:37.309Z,3.60
2022-09-05T06:52:29.776Z,3.60
2022-09-05T06:55:19.054Z,3.73
2022-09-05T06:57:48.907Z,3.27
2022-09-05T07:00:23.233Z,3.90
2022-09-05T07:03:22.739Z,3.40
2022-09-05T07:06:04.772Z,3.13
2022-09-05T07:08:48.372Z,3.73
2022-09-05T07:11:20.910Z,3.33
2022-09-05T07:14:02.777Z,4.30
2022-09-05T07:16:42.022Z,2.80
2022-09-05T07:19:44.653Z,3.30
2022-09-05T07:22:44.507Z,3.73
2022-09-05T07:25:18.871Z,3.63
2022-09-05T07:28:27.054Z,2.93
2022-09-05T07:30:59.536Z,4.20
2022-09-05T07:33:29.955Z,3.20
2022-09-05T07:36:11.774Z,3.20
2022-09-05T07:38:52.040Z,3.37
2022-09-05T07:41:29.497Z,3.63
2022-09-05T07:44:23.373Z,3.60
2022-09-05T07:47:02.120Z,3.53
2022-09-05T07:49:31.172Z,3.73
2022-09-05T07:56:51.884Z,2.70
2022-09-05T07:56:53.779Z,3.10
2022-09-05T07:57:51.964Z,3.10
2022-09-05T08:00:26.962Z,3.30
2022-09-05T08:03:10.597Z,3.03
2022-09-05T08:05:48.108Z,3.47
2022-09-05T08:08:21.154Z,3.23
2022-09-05T08:11:23.277Z,3.70
2022-09-05T08:14:44.795Z,3.13
2022-09-05T08:16:58.920Z,2.60
2022-09-05T08:19:57.479Z,3.33
2022-09-05T08:22:52.822Z,2.50
2022-09-05T08:25:37.570Z,3.20
2022-09-05T08:28:41.008Z,13.60
2022-09-05T08:31:15.141Z,7.23
2022-09-05T08:33:43.625Z,7.97
2022-09-05T08:36:18.354Z,6.30
2022-09-05T08:38:46.119Z,5.40
2022-09-05T08:41:30.056Z,5.43
2022-09-05T08:46:47.736Z,4.20
2022-09-05T08:47:32.427Z,4.40
2022-09-05T08:50:41.344Z,4.27
2022-09-05T08:53:47.300Z,4.60
2022-09-05T08:56:46.349Z,3.60
2022-09-05T08:59:31.977Z,3.80
2022-09-05T09:02:46.750Z,4.23
2022-09-05T09:06:12.067Z,3.40
2022-09-05T09:08:45.979Z,3.87
2022-09-05T09:11:22.983Z,3.83
2022-09-05T09:13:54.905Z,4.00
2022-09-05T09:16:50.785Z,3.90
2022-09-05T09:19:34.368Z,3.30
2022-09-05T09:22:20.147Z,4.10
2022-09-05T09:25:15.172Z,3.70
2022-09-05T09:28:47.986Z,3.77
2022-09-05T09:31:44.196Z,4.00
2022-09-05T09:34:39.886Z,3.80
2022-09-05T09:37:31.962Z,4.17
2022-09-05T09:40:37.970Z,3.60
2022-09-05T09:43:27.439Z,3.20
2022-09-05T09:46:22.354Z,3.33
2022-09-05T09:49:23.163Z,3.00
2022-09-05T09:52:00.454Z,3.13
2022-09-05T09:54:59.828Z,3.13
2022-09-05T09:57:51.391Z,3.23
2022-09-05T10:00:21.519Z,2.93
2022-09-05T10:10:35.840Z,3.87
2022-09-05T10:10:38.273Z,3.10
2022-09-05T10:10:57.644Z,3.50
2022-09-05T10:12:39.823Z,3.00
2022-09-05T10:15:18.595Z,3.40
2022-09-05T10:18:20.417Z,3.77
2022-09-05T10:21:27.035Z,3.20
2022-09-05T10:24:21.891Z,3.70
2022-09-05T10:27:10.092Z,2.70
2022-09-05T10:30:04.927Z,3.03
2022-09-05T10:35:04.967Z,3.47
2022-09-05T10:35:49.399Z,2.93
2022-09-05T10:38:43.487Z,2.63
2022-09-05T10:41:20.949Z,2.37
2022-09-05T10:44:02.471Z,2.60
2022-09-05T10:46:50.793Z,3.30
2022-09-05T10:49:26.921Z,2.70
2022-09-05T10:52:03.541Z,2.77
2022-09-05T10:55:17.973Z,2.87
2022-09-05T10:57:58.736Z,2.70
2022-09-05T11:02:28.713Z,2.60
2022-09-05T11:03:52.722Z,2.50
2022-09-05T11:06:35.905Z,2.60
2022-09-05T11:09:19.715Z,2.70
2022-09-05T11:11:57.191Z,2.73
2022-09-05T11:14:36.075Z,2.80
2022-09-05T11:17:14.720Z,2.83
2022-09-05T11:19:56.270Z,3.10
2022-09-05T11:22:34.958Z,2.47
2022-09-05T11:25:04.975Z,2.60
2022-09-05T11:27:47.718Z,3.10
2022-09-05T11:30:30.285Z,2.47
2022-09-05T11:39:38.094Z,2.83
2022-09-05T11:39:54.296Z,3.10
2022-09-05T11:40:08.557Z,2.80
2022-09-05T11:42:41.526Z,2.83
2022-09-05T11:45:27.812Z,2.90
2022-09-05T11:48:22.813Z,2.43
2022-09-05T11:51:02.328Z,2.70
2022-09-05T11:53:57.276Z,2.87
2022-09-05T11:56:49.210Z,3.57
2022-09-05T11:59:32.975Z,2.70
2022-09-05T12:02:37.772Z,3.13
2022-09-05T12:05:49.202Z,2.80
2022-09-05T12:08:44.514Z,2.83
2022-09-05T12:11:29.691Z,3.40
2022-09-05T12:14:28.995Z,2.90
2022-09-05T12:17:35.467Z,3.23
2022-09-05T12:20:33.686Z,2.60
2022-09-05T12:24:13.198Z,3.50
2022-09-05T12:27:42.469Z,2.23
2022-09-05T12:29:46.799Z,2.80
2022-09-05T12:35:22.527Z,3.10
2022-09-05T12:36:06.806Z,2.07
2022-09-05T12:40:54.214Z,2.83
2022-09-05T12:41:44.627Z,3.00
2022-09-05T12:44:41.560Z,2.73
2022-09-05T12:47:19.466Z,2.50
2022-09-05T12:50:03.213Z,2.87
2022-09-05T12:52:46.469Z,2.50
2022-09-05T12:55:28.706Z,3.13
2022-09-05T13:02:58.903Z,3.50
2022-09-05T13:03:07.413Z,3.23
2022-09-05T13:04:13.332Z,3.13
2022-09-05T13:06:39.881Z,2.80
2022-09-05T13:09:30.796Z,3.30
2022-09-05T13:14:54.651Z,4.07
2022-09-05T13:15:39.112Z,2.67
2022-09-05T13:18:10.441Z,2.80
2022-09-05T13:21:04.518Z,3.30
2022-09-05T13:24:12.362Z,2.60
2022-09-05T13:26:50.268Z,3.60
2022-09-05T13:29:37.207Z,3.60
2022-09-05T13:38:21.155Z,3.00
2022-09-05T13:38:29.073Z,3.40
2022-09-05T13:38:49.898Z,2.90
2022-09-05T13:41:32.629Z,3.83
2022-09-05T13:44:26.737Z,3.90
2022-09-05T13:47:29.007Z,4.07
2022-09-05T13:50:05.677Z,2.80
2022-09-05T13:52:43.730Z,3.27
2022-09-05T13:55:25.303Z,3.50
2022-09-05T13:57:55.469Z,2.83
2022-09-05T14:00:41.007Z,4.00
2022-09-05T14:03:40.974Z,3.57
2022-09-05T14:06:46.439Z,3.50
2022-09-05T14:12:15.302Z,3.30
2022-09-05T14:17:57.901Z,3.73
2022-09-05T14:21:01.198Z,3.67
2022-09-05T14:23:43.444Z,3.40
2022-09-05T14:26:30.035Z,3.37
2022-09-05T14:29:18.669Z,3.67
2022-09-05T14:37:43.359Z,3.60
2022-09-05T14:37:46.431Z,3.40
2022-09-05T14:38:46.056Z,3.90
2022-09-05T14:41:53.235Z,3.20
2022-09-05T14:44:59.165Z,3.03
2022-09-05T14:47:53.515Z,3.50
2022-09-05T14:50:42.132Z,3.80
2022-09-05T14:57:56.127Z,2.70
2022-09-05T15:02:44.983Z,2.63
2022-09-05T15:02:49.219Z,3.30
2022-09-05T15:05:40.204Z,2.90
2022-09-05T15:08:52.568Z,2.77
2022-09-05T15:12:16.012Z,2.67
2022-09-05T15:13:58.657Z,2.50
2022-09-05T15:16:26.591Z,2.60
2022-09-05T15:18:56.419Z,3.17
2022-09-05T15:21:35.514Z,3.47
2022-09-05T15:24:24.047Z,2.70
2022-09-05T15:26:56.912Z,2.50
2022-09-05T15:29:34.582Z,3.30
2022-09-05T15:32:25.103Z,2.60
2022-09-05T15:34:55.581Z,2.70
2022-09-05T15:37:37.140Z,2.60
2022-09-05T15:40:22.975Z,2.63
2022-09-05T15:42:58.054Z,3.00
2022-09-05T15:45:29.995Z,2.63
2022-09-05T15:48:12.607Z,2.20
2022-09-05T15:50:50.255Z,2.50
2022-09-05T15:53:29.861Z,2.47
2022-09-05T15:56:14.160Z,2.20
2022-09-05T15:58:54.866Z,2.00
2022-09-05T16:01:59.860Z,2.17
2022-09-05T16:07:42.990Z,1.77
2022-09-05T16:10:46.539Z,1.90
2022-09-05T16:10:49.756Z,2.00
2022-09-05T16:13:15.181Z,2.33
2022-09-05T16:20:45.349Z,3.20
2022-09-05T16:23:16.667Z,2.60
2022-09-05T16:23:29.142Z,2.33
2022-09-05T16:24:59.265Z,2.23
2022-09-05T16:27:59.147Z,2.60
2022-09-05T16:30:38.879Z,2.10
2022-09-05T16:33:24.062Z,1.70
2022-09-05T16:36:04.734Z,1.90
2022-09-05T16:38:52.426Z,2.10
2022-09-05T16:41:24.606Z,1.50
2022-09-05T16:44:04.388Z,2.07
2022-09-05T16:46:44.581Z,2.40
2022-09-05T16:49:12.195Z,2.07
2022-09-05T16:52:02.004Z,1.57
2022-09-05T16:54:47.832Z,1.63
2022-09-05T16:57:23.949Z,1.33
2022-09-05T16:59:51.543Z,1.20
2022-09-05T17:02:29.036Z,2.27
2022-09-05T17:05:04.846Z,1.43
2022-09-05T17:08:09.403Z,2.20
2022-09-05T17:10:54.431Z,1.90
2022-09-05T17:13:45.854Z,2.63
2022-09-05T17:16:31.361Z,2.30
2022-09-05T17:19:01.380Z,1.53
2022-09-05T17:24:20.265Z,1.90
2022-09-05T17:29:19.512Z,1.63
2022-09-05T17:29:45.463Z,1.70
2022-09-05T17:33:45.700Z,1.60
2022-09-05T17:36:18.636Z,1.80
2022-09-05T17:38:48.865Z,1.63
2022-09-05T17:41:16.083Z,1.93
2022-09-05T17:43:51.358Z,2.20
2022-09-05T17:46:31.994Z,1.40
2022-09-05T17:49:20.048Z,2.17
2022-09-05T17:51:53.871Z,1.20
2022-09-05T17:54:28.626Z,2.03
2022-09-05T17:56:56.440Z,1.10
2022-09-05T17:59:28.381Z,1.37
2022-09-05T18:02:08.110Z,1.17
2022-09-05T18:04:47.181Z,1.67
2022-09-05T18:07:26.643Z,1.07
2022-09-05T18:10:14.632Z,1.17
2022-09-05T18:15:38.709Z,1.33
2022-09-05T18:18:08.729Z,1.53
2022-09-05T18:21:21.321Z,1.00
2022-09-05T18:24:03.340Z,1.23
2022-09-05T18:26:46.750Z,1.70
2022-09-05T18:29:57.244Z,1.10
2022-09-05T18:32:54.218Z,1.80
2022-09-05T18:36:03.093Z,1.37
2022-09-05T18:38:51.641Z,1.00
2022-09-05T18:41:23.314Z,1.33
2022-09-05T18:44:19.975Z,1.90
2022-09-05T18:46:53.803Z,1.30
2022-09-05T18:50:25.378Z,1.23
2022-09-05T18:52:36.640Z,1.80
2022-09-05T18:56:08.949Z,1.33
2022-09-05T18:58:13.701Z,0.80
2022-09-05T19:00:46.698Z,1.30
2022-09-05T19:03:30.266Z,2.13
2022-09-05T19:06:35.893Z,1.13
2022-09-05T19:09:02.811Z,1.10
2022-09-05T19:11:37.887Z,1.03
2022-09-05T19:14:53.490Z,0.80
2022-09-05T19:17:45.385Z,1.33
2022-09-05T19:20:32.182Z,1.20
2022-09-05T19:23:12.005Z,1.10
2022-09-05T19:25:44.405Z,1.60
2022-09-05T19:35:14.129Z,2.00
2022-09-05T19:36:49.131Z,1.37
2022-09-05T19:37:08.029Z,1.20
2022-09-05T19:37:27.435Z,1.10
2022-09-05T19:47:21.959Z,1.30
2022-09-05T19:47:29.443Z,1.00
2022-09-05T19:47:42.436Z,1.40
2022-09-05T19:48:34.531Z,1.57
2022-09-05T19:51:17.167Z,1.40
2022-09-05T19:54:04.445Z,1.07
2022-09-05T19:56:45.267Z,2.03
2022-09-05T19:59:34.106Z,1.20
2022-09-05T20:02:03.167Z,0.93
2022-09-05T20:04:50.760Z,1.10
2022-09-05T20:07:26.024Z,3.23
2022-09-05T20:09:54.940Z,1.97
2022-09-05T20:12:31.480Z,1.40
2022-09-05T20:15:38.892Z,1.93
2022-09-05T20:18:36.146Z,1.70
2022-09-05T20:21:23.107Z,1.50
2022-09-05T20:23:51.632Z,1.07
2022-09-05T20:26:22.673Z,0.80
2022-09-05T20:28:54.795Z,1.50
2022-09-05T20:31:27.344Z,0.70
2022-09-05T20:33:56.747Z,1.23
2022-09-05T20:43:08.993Z,1.33
2022-09-05T20:43:20.078Z,0.80
2022-09-05T20:43:27.017Z,1.40
2022-09-05T20:45:44.775Z,0.97
2022-09-05T20:54:09.827Z,0.90
2022-09-05T20:54:15.417Z,1.00
2022-09-05T20:54:27.128Z,1.10
2022-09-05T20:56:56.358Z,0.70
2022-09-05T20:59:33.555Z,1.17
2022-09-05T21:02:23.822Z,0.80
2022-09-05T21:05:20.176Z,0.80
2022-09-05T21:08:01.090Z,1.40
2022-09-05T21:10:55.790Z,1.03
2022-09-05T21:13:36.690Z,0.80
2022-09-05T21:16:27.279Z,0.80
2022-09-05T21:18:55.046Z,0.90
2022-09-05T21:21:35.074Z,0.70
2022-09-05T21:24:17.534Z,0.83
2022-09-05T21:26:47.907Z,0.63
2022-09-05T21:29:23.273Z,0.77
2022-09-05T21:31:57.527Z,0.80
2022-09-05T21:34:31.632Z,0.80
2022-09-05T21:37:07.985Z,0.73
2022-09-05T21:39:46.747Z,0.80
2022-09-05T21:47:20.336Z,0.77
2022-09-05T21:47:49.554Z,0.93
2022-09-05T21:48:10.758Z,0.67
2022-09-05T21:50:45.963Z,0.90
2022-09-05T21:58:13.039Z,0.87
2022-09-05T21:59:29.948Z,0.87
2022-09-05T21:59:35.440Z,1.07
2022-09-05T22:02:08.455Z,0.70
2022-09-05T22:04:41.776Z,0.70
2022-09-05T22:07:14.477Z,0.90
2022-09-05T22:09:42.162Z,0.87
2022-09-05T22:12:23.158Z,0.80
2022-09-05T22:15:26.410Z,0.97
2022-09-05T22:17:49.770Z,0.80
2022-09-05T22:20:21.716Z,0.70
2022-09-05T22:22:56.382Z,0.70
2022-09-05T22:25:30.970Z,0.70
2022-09-05T22:28:16.553Z,1.27
2022-09-05T22:30:43.869Z,1.07
2022-09-05T22:33:13.004Z,0.70
2022-09-05T22:35:40.945Z,0.80
2022-09-05T22:38:16.565Z,1.10
2022-09-05T22:40:47.846Z,0.73
2022-09-05T22:43:16.882Z,0.90
2022-09-05T22:45:46.998Z,1.30
2022-09-05T22:48:14.827Z,0.90
2022-09-05T22:50:42.874Z,0.87
2022-09-05T22:53:13.452Z,0.90
2022-09-05T22:55:43.276Z,0.70
2022-09-05T22:58:14.770Z,1.00
2022-09-05T23:00:44.276Z,1.20
2022-09-05T23:03:11.440Z,0.87
2022-09-05T23:05:38.735Z,0.93
2022-09-05T23:08:06.537Z,1.33
2022-09-05T23:10:35.448Z,1.00
2022-09-05T23:13:10.629Z,0.80
2022-09-05T23:15:40.944Z,1.10
2022-09-05T23:18:08.088Z,1.00
2022-09-05T23:20:37.894Z,0.70
2022-09-05T23:23:08.198Z,1.10
2022-09-05T23:25:38.702Z,1.40
2022-09-05T23:28:09.911Z,1.27
2022-09-05T23:30:38.043Z,1.73
2022-09-05T23:33:09.450Z,0.90
2022-09-05T23:35:37.425Z,0.90
2022-09-05T23:38:09.773Z,1.40
2022-09-05T23:40:37.680Z,0.83
2022-09-05T23:43:07.014Z,0.73
2022-09-05T23:45:38.004Z,0.90
2022-09-05T23:48:05.380Z,1.40
2022-09-05T23:50:32.635Z,0.90
2022-09-05T23:53:04.778Z,0.70
2022-09-05T23:55:32.987Z,0.93
2022-09-05T23:58:01.174Z,1.07
